»·PEaware :: EZS1377 LSGG-LFMN

EZS1377 :: LSGG-LFMN

FLIGHT INFORMATION

Flight Status: Arrived
Operator:
Easy Jet Switzerland
More flights by this operator :: More flights under this callsign
Pilot: Timothy W. (9658)
Aircraft: AIRBUS A320
(A320)
More flights by this aircraft type
Origin: LSGG Geneva
Switzerland
Destination: LFMN Nice/Cote d'Azur
France
More flights between these airports :: More routes between these airports
Route: MEDA4Q MEDAM Y24 VEVAR VEVA6R
File this flight plan on PilotEdge
Remarks:
Altitude:
(Current/Filed)
23,000ft
Speed:
(Current/Filed)
435kts
Departed: 20-May-18 12:23 AM
Arrived: 20-May-18 01:08 AM
Distance/Time
Traveled:
161nm/0:45
Distance/Time
To Go:
Arrived

Flight Plot

Page will automatically refresh every two minutes.

Flight plan parsing failed; only flown route is shown


Map Options




Map Legend


Flown Route
Filed Route
Departure Airport
Arrival Airport
Navaid (VOR, NDB)
Fix

Horizontal Profiles

Position Reports

Time Latitude Longitude Heading Altitude Ground
Speed
19-May-18 23:54 46.231295 6.107039 133 1373ft 0kts
19-May-18 23:55 46.231295 6.107039 133 1373ft 0kts
19-May-18 23:56 46.231295 6.107039 133 1373ft 0kts
19-May-18 23:57 46.231295 6.107039 133 1373ft 0kts
19-May-18 23:58 46.231295 6.107039 133 1373ft 0kts
19-May-18 23:59 46.231295 6.107039 133 1373ft 0kts
20-May-18 00:00 46.231295 6.107039 133 1373ft 0kts
20-May-18 00:01 46.231295 6.107039 133 1373ft 0kts
20-May-18 00:02 46.231295 6.107039 133 1373ft 0kts
20-May-18 00:03 46.231295 6.107039 133 1373ft 0kts
20-May-18 00:04 46.231295 6.107039 133 1373ft 0kts
20-May-18 00:05 46.231295 6.107039 133 1373ft 0kts
20-May-18 00:06 46.231295 6.107039 133 1373ft 0kts
20-May-18 00:07 46.231295 6.107039 133 1373ft 0kts
20-May-18 00:08 46.231295 6.107039 133 1373ft 0kts
20-May-18 00:09 46.231295 6.107039 133 1373ft 0kts
20-May-18 00:10 46.231295 6.107039 133 1373ft 0kts
20-May-18 00:11 46.231295 6.107039 133 1373ft 0kts
20-May-18 00:12 46.231295 6.107039 133 1373ft 0kts
20-May-18 00:13 46.231397 6.106880 133 1373ft 2kts
20-May-18 00:14 46.231364 6.106112 42 1373ft 1kts
20-May-18 00:15 46.231347 6.106089 45 1373ft 0kts
20-May-18 00:16 46.231983 6.107022 46 1373ft 12kts
20-May-18 00:17 46.233660 6.105922 225 1373ft 14kts
20-May-18 00:18 46.230820 6.101609 226 1373ft 15kts
20-May-18 00:19 46.227781 6.097154 225 1373ft 15kts
20-May-18 00:20 46.225518 6.092530 271 1373ft 0kts
20-May-18 00:21 46.225518 6.092530 271 1373ft 0kts
20-May-18 00:22 46.225525 6.092219 271 1373ft 5kts
20-May-18 00:23 46.227570 6.093560 46 1373ft 48kts
20-May-18 00:24 46.258404 6.138361 45 3474ft 191kts
20-May-18 00:25 46.301833 6.203389 46 6248ft 268kts
20-May-18 00:26 46.353525 6.286722 65 9946ft 290kts
20-May-18 00:27 46.321641 6.391913 157 11853ft 360kts
20-May-18 00:28 46.226727 6.353292 230 13911ft 395kts
20-May-18 00:29 46.140874 6.262647 186 16239ft 405kts
20-May-18 00:30 46.028438 6.253935 182 18375ft 415kts
20-May-18 00:31 45.913949 6.268552 154 20253ft 426kts
20-May-18 00:32 45.817374 6.367386 144 21482ft 432kts
20-May-18 00:33 45.720685 6.469917 144 22456ft 439kts
20-May-18 00:34 45.621861 6.574142 144 23168ft 449kts
20-May-18 00:35 45.519801 6.681281 144 23182ft 466kts
20-May-18 00:36 45.417023 6.787469 145 23187ft 466kts
20-May-18 00:37 45.317224 6.887233 145 23187ft 466kts
20-May-18 00:38 45.199369 6.950297 174 23172ft 463kts
20-May-18 00:39 45.075903 6.969478 172 23155ft 467kts
20-May-18 00:40 44.949451 6.989220 173 23161ft 463kts
20-May-18 00:41 44.824121 7.008689 173 23159ft 463kts
20-May-18 00:42 44.701051 7.036078 169 23160ft 464kts
20-May-18 00:43 44.574527 7.066154 169 23160ft 465kts
20-May-18 00:44 44.448609 7.095968 169 23159ft 465kts
20-May-18 00:45 44.322238 7.125760 170 23159ft 466kts
20-May-18 00:46 44.200191 7.159637 158 22224ft 447kts
20-May-18 00:47 44.090347 7.223954 156 20699ft 417kts
20-May-18 00:48 43.985611 7.285204 156 19523ft 410kts
20-May-18 00:49 43.881797 7.345679 156 18347ft 403kts
20-May-18 00:50 43.787777 7.424175 140 17198ft 395kts
20-May-18 00:51 43.702728 7.518857 141 16029ft 386kts
20-May-18 00:52 43.610697 7.578355 188 13526ft 378kts
20-May-18 00:53 43.516203 7.521387 200 11377ft 372kts
20-May-18 00:54 43.421441 7.469924 201 10386ft 364kts
20-May-18 00:55 43.338462 7.424705 201 9384ft 297kts
20-May-18 00:56 43.271859 7.368048 250 7966ft 288kts
20-May-18 00:57 43.257334 7.261849 261 6589ft 280kts
20-May-18 00:58 43.247896 7.159806 285 5607ft 260kts
20-May-18 00:59 43.299207 7.102702 342 4647ft 245kts
20-May-18 01:00 43.362177 7.072995 341 3667ft 231kts
20-May-18 01:01 43.419932 7.045492 341 3035ft 204kts
20-May-18 01:02 43.469883 7.021584 341 3018ft 189kts
20-May-18 01:03 43.516790 7.019823 36 3019ft 168kts
20-May-18 01:04 43.550264 7.064242 44 2811ft 169kts
20-May-18 01:05 43.582935 7.109225 44 1907ft 165kts
20-May-18 01:06 43.614768 7.153070 44 1076ft 146kts
20-May-18 01:07 43.641043 7.189233 43 357ft 133kts
20-May-18 01:08 43.662593 7.218903 42 21ft 27kts
20-May-18 01:09 43.665431 7.220423 313 21ft 0kts
20-May-18 01:10 43.665545 7.220233 295 21ft 4kts
20-May-18 01:11 43.663920 7.217528 225 21ft 12kts
20-May-18 01:12 43.663609 7.214305 261 21ft 11kts
20-May-18 01:13 43.663236 7.209420 275 21ft 13kts
20-May-18 01:14 43.662281 7.207335 282 21ft 4kts
20-May-18 01:15 43.662274 7.206716 261 21ft 0kts
20-May-18 01:16 43.662274 7.206716 261 21ft 0kts
20-May-18 01:17 43.662274 7.206716 261 21ft 0kts
20-May-18 01:18 43.662274 7.206716 261 21ft 0kts
20-May-18 01:19 43.662274 7.206716 261 21ft 0kts
20-May-18 01:20 43.662274 7.206716 261 21ft 0kts
20-May-18 01:21 43.662274 7.206716 261 21ft 0kts
20-May-18 01:22 43.662274 7.206716 261 21ft 0kts

Navigation Log

Ident Type
Flight plan parsing failed, navigation log unavailable